M I D A S
Marine Information and Data Acquisition System
Tripno 1333 of the Zeeleeuw from 2007-06-07 05:49:06 to 2007-06-07 10:22:00
Back to CruiseResearch ActivitiesStationsMapUnderway DataData graphs

EquipmentUnitsComment
TimeDGPSUTC
LatitudeDGPSDM.mWGS84
LongitudeDGPSDM.mWGS84
HeadingGyrodeg 
SOGDGPSknotsSpeed over ground
COGDGPSdegCourse over ground
DepthEcho soundermeters200 kHz
Missing or incorrect values are displayed as -999
Navigation data collected by the RV Zeeleeuw from 2007-06-07 05:53:11 to 2007-06-07 10:32:34
Time Latitude Longitude Heading SOG COG Depth
2007-06-07 05:54:16 51°13.598 2°56.067 120.7 4.4 297 -999
2007-06-07 05:55:16 51°13.643 2°55.95 129.1 5.6 305 -999
2007-06-07 05:56:16 51°13.697 2°55.826 126.5 5.9 303 -999
2007-06-07 05:57:16 51°13.764 2°55.704 148 6.3 323 -999
2007-06-07 05:58:16 51°13.848 2°55.638 174.1 4.5 347 -999
2007-06-07 05:59:16 51°13.902 2°55.638 205 2.4 14 -999
2007-06-07 06:00:16 51°13.929 2°55.659 228.3 1.5 37 13
2007-06-07 06:01:16 51°13.942 2°55.681 243.3 0.9 55 12.8
2007-06-07 06:02:16 51°13.946 2°55.698 248.7 0.4 81 12.6
2007-06-07 06:03:16 51°13.944 2°55.7 253.3 0.9 256 12.7
2007-06-07 06:04:16 51°13.987 2°55.587 316.4 9.4 315 12.5
2007-06-07 06:05:16 51°14.12 2°55.434 331.8 9.5 328 4.8
2007-06-07 06:06:16 51°14.251 2°55.273 322.7 10.1 316 12.9
2007-06-07 06:07:16 51°14.37 2°55.068 323.4 11.4 319 12.7
2007-06-07 06:08:16 51°14.543 2°54.877 331 13.1 328 11.2
2007-06-07 06:09:16 51°14.728 2°54.695 329.2 13 327 11.4
2007-06-07 06:10:16 51°14.905 2°54.495 323.1 13 322 11.4
2007-06-07 06:11:16 51°15.06 2°54.258 314.9 13 314 10.4
2007-06-07 06:12:16 51°15.17 2°53.97 292.6 12.9 288 10.6
2007-06-07 06:13:16 51°15.215 2°53.635 283.1 12.9 282 11.4
2007-06-07 06:14:16 51°15.261 2°53.301 284.1 12.9 281 12
2007-06-07 06:15:16 51°15.308 2°52.967 285.3 12.8 284 12.2
2007-06-07 06:16:16 51°15.349 2°52.632 282.7 12.8 281 12.7
2007-06-07 06:17:16 51°15.378 2°52.297 279.6 12.8 275 13.3
2007-06-07 06:18:16 51°15.406 2°51.959 279.4 12.9 278 13.6
2007-06-07 06:19:16 51°15.428 2°51.623 274.5 12.8 271 14.2
2007-06-07 06:20:16 51°15.429 2°51.282 271 12.8 267 14
2007-06-07 06:21:16 51°15.43 2°50.941 272.4 12.9 272 14.3
2007-06-07 06:22:16 51°15.429 2°50.601 271.4 12.8 265 14.5
2007-06-07 06:23:16 51°15.411 2°50.261 268.7 12.8 265 14.4
2007-06-07 06:24:16 51°15.397 2°49.92 269.4 12.9 266 14.3
2007-06-07 06:25:16 51°15.385 2°49.578 269.4 12.8 266 14.6
2007-06-07 06:26:16 51°15.374 2°49.237 270.3 13 265 14.8
2007-06-07 06:27:16 51°15.362 2°48.894 270.4 12.9 268 14.7
2007-06-07 06:28:16 51°15.354 2°48.548 269.1 13.1 270 13.3
2007-06-07 06:29:16 51°15.343 2°48.205 269.4 13 268 11.8
2007-06-07 06:30:16 51°15.33 2°47.861 269.4 13 265 11.4
2007-06-07 06:31:16 51°15.319 2°47.517 268.3 13.1 270 11.7
2007-06-07 06:32:16 51°15.308 2°47.171 270 13 266 12.6
2007-06-07 06:33:16 51°15.297 2°46.82 270.4 13.2 270 13.6
2007-06-07 06:34:16 51°15.286 2°46.473 269.4 13 266 14.7
2007-06-07 06:35:16 51°15.277 2°46.128 269.5 13.1 270 15.9
2007-06-07 06:36:16 51°15.266 2°45.784 271 12.9 266 17
2007-06-07 06:37:16 51°15.255 2°45.442 269.4 13 267 17.8
2007-06-07 06:38:16 51°15.249 2°45.094 269.6 13.2 268 18.6
2007-06-07 06:39:16 51°15.239 2°44.748 269.5 13 268 19.6
2007-06-07 06:40:16 51°15.227 2°44.405 270.2 13 264 19.3
2007-06-07 06:41:16 51°15.219 2°44.06 270.1 13 268 17.5
2007-06-07 06:42:16 51°15.209 2°43.715 270.3 13 265 15.3
2007-06-07 06:43:16 51°15.203 2°43.366 270 13 269 14.6
2007-06-07 06:44:16 51°15.192 2°43.022 269.6 12.9 265 15.2
2007-06-07 06:45:16 51°15.227 2°42.683 288.6 13.2 292 14.4
2007-06-07 06:46:16 51°15.317 2°42.364 296.8 13.2 297 13.3
2007-06-07 06:47:16 51°15.408 2°42.045 296.2 13.3 294 11.9
2007-06-07 06:48:16 51°15.498 2°41.726 296.2 13.4 294 11.9
2007-06-07 06:49:16 51°15.589 2°41.402 295.4 13.4 294 12.2
2007-06-07 06:50:16 51°15.713 2°41.11 310.1 13.4 316 13.3
2007-06-07 06:51:16 51°15.894 2°40.907 335.3 13.4 334 15.9
2007-06-07 06:52:16 51°16.094 2°40.746 333.8 13.5 330 19.4
2007-06-07 06:53:16 51°16.286 2°40.562 331.4 13.4 328 21.3
2007-06-07 06:54:16 51°16.462 2°40.354 325.3 13.2 323 22.9
2007-06-07 06:55:16 51°16.634 2°40.14 323.8 13.2 322 22.4
2007-06-07 06:56:16 51°16.807 2°39.922 324.6 13.3 322 19.9
2007-06-07 06:57:16 51°16.977 2°39.702 324 13.1 321 16.2
2007-06-07 06:58:16 51°17.148 2°39.48 324.4 13.2 321 13.6
2007-06-07 06:59:16 51°17.319 2°39.261 323.7 13.3 320 13.3
2007-06-07 07:00:16 51°17.495 2°39.043 325.1 13.4 321 23.5
2007-06-07 07:01:16 51°17.673 2°38.828 324.5 13.3 321 27.5
2007-06-07 07:02:16 51°17.85 2°38.613 325.1 13.6 325 27.7
2007-06-07 07:03:16 51°18.031 2°38.402 323.9 13.4 325 27.7
2007-06-07 07:04:16 51°18.21 2°38.187 324.3 13.4 324 26.9
2007-06-07 07:05:16 51°18.389 2°37.974 324.6 13.3 322 25.6
2007-06-07 07:06:17 51°18.571 2°37.755 324.3 13.4 322 23.8
2007-06-07 07:07:16 51°18.743 2°37.535 323.8 13.5 322 22.8
2007-06-07 07:08:16 51°18.916 2°37.313 324.3 13.2 319 20.9
2007-06-07 07:09:16 51°19.088 2°37.092 324.2 13.3 323 20.3
2007-06-07 07:10:16 51°19.262 2°36.873 325.4 13.3 323 23
2007-06-07 07:11:16 51°19.432 2°36.665 324.8 12.3 322 22.1
2007-06-07 07:12:16 51°19.593 2°36.47 324 12 325 21.9
2007-06-07 07:13:16 51°19.771 2°36.409 10.7 9 22 22.2
2007-06-07 07:14:16 51°19.876 2°36.542 31.2 8.1 28 22.8
2007-06-07 07:15:16 51°19.953 2°36.66 53.3 5.6 49 21.9
2007-06-07 07:16:16 51°20.017 2°36.763 49 5.6 47 22.3
2007-06-07 07:17:16 51°20.075 2°36.872 48.1 5.2 48 23.5
2007-06-07 07:18:16 51°20.124 2°36.95 42.4 3 42 22.6
2007-06-07 07:19:16 51°20.149 2°36.994 47.7 1.6 51 21.9
2007-06-07 07:20:17 51°20.164 2°37.038 73.3 2.3 75 23
2007-06-07 07:21:16 51°20.167 2°37.085 87.1 1.4 94 22.1
2007-06-07 07:22:17 51°20.167 2°37.115 86.3 1 96 22.7
2007-06-07 07:23:16 51°20.163 2°37.129 93.6 0.6 131 22.8
2007-06-07 07:24:17 51°20.156 2°37.133 103 0.3 174 22.9
2007-06-07 07:25:16 51°20.151 2°37.131 119.8 0.2 224 22.6
2007-06-07 07:26:16 51°20.146 2°37.127 131.7 0.4 224 22.5
2007-06-07 07:27:16 51°20.143 2°37.12 138.3 0.3 222 21.6
2007-06-07 07:28:16 51°20.139 2°37.116 138.6 0.3 216 21.9
2007-06-07 07:29:17 51°20.134 2°37.113 132.4 0.5 203 21.1
2007-06-07 07:30:16 51°20.129 2°37.109 130.5 0.5 218 21.3
2007-06-07 07:31:16 51°20.124 2°37.104 129.2 0.3 227 22.5
2007-06-07 07:32:16 51°20.119 2°37.098 128.6 0.5 218 22.4
2007-06-07 07:33:16 51°20.114 2°37.091 129.9 0.4 212 22.7
2007-06-07 07:34:16 51°20.109 2°37.086 129.4 0.5 197 22.7
2007-06-07 07:35:16 51°20.053 2°37.095 198.9 5.1 206 22.2
2007-06-07 07:36:17 51°20.023 2°37.045 259.4 1.3 252 21.8
2007-06-07 07:37:16 51°20.021 2°37.021 286.1 0.7 261 21.4
2007-06-07 07:38:17 51°20.014 2°37.024 293.9 1.1 131 21.7
2007-06-07 07:39:16 51°20.004 2°37.029 257.4 1.8 242 21.7
2007-06-07 07:40:17 51°19.965 2°36.994 189.2 2.3 188 21.4
2007-06-07 07:41:16 51°19.95 2°36.99 154.3 0.5 203 21.8
2007-06-07 07:42:17 51°19.943 2°36.985 135 0.4 205 22.4
2007-06-07 07:43:17 51°19.937 2°36.981 123.9 0.5 213 22.5
2007-06-07 07:44:17 51°19.93 2°36.974 121.4 0.5 219 21.9
2007-06-07 07:45:17 51°19.923 2°36.965 121.1 0.6 217 22.3
2007-06-07 07:46:16 51°19.916 2°36.959 117.3 0.6 178 22
2007-06-07 07:47:17 51°19.907 2°36.973 98.9 1.1 120 21.9
2007-06-07 07:48:16 51°19.904 2°36.999 76.8 1.1 88 22.1
2007-06-07 07:49:17 51°19.912 2°37.031 52.2 1.4 55 22
2007-06-07 07:50:16 51°19.931 2°37.047 15.2 1.4 5 21.2
2007-06-07 07:51:16 51°19.957 2°37.026 339.4 2.1 320 21.8
2007-06-07 07:52:16 51°19.987 2°36.985 335.4 2.6 320 21.9
2007-06-07 07:53:16 51°20.008 2°36.948 331 1.4 298 22.3
2007-06-07 07:54:17 51°20.012 2°36.919 325.9 1 274 21.8
2007-06-07 07:55:16 51°20.008 2°36.899 315.4 0.7 231 22.1
2007-06-07 07:56:17 51°19.999 2°36.884 301.6 0.8 214 22.2
2007-06-07 07:57:16 51°19.989 2°36.87 291.5 0.8 226 21.9
2007-06-07 07:58:17 51°19.981 2°36.857 284 0.7 222 22.2
2007-06-07 07:59:16 51°19.972 2°36.846 281.3 0.7 215 21.6
2007-06-07 08:00:17 51°19.962 2°36.835 279.3 0.7 220 20.4
2007-06-07 08:01:17 51°19.96 2°36.799 302.1 1.9 285 21.9
2007-06-07 08:02:17 51°19.985 2°36.751 342.4 2.6 332 21.5
2007-06-07 08:03:17 51°20.02 2°36.742 19.7 1.5 359 21.4
2007-06-07 08:04:16 51°20.036 2°36.743 30 0.5 347 20.9
2007-06-07 08:05:17 51°20.036 2°36.741 45.4 0.3 210 21.2
2007-06-07 08:06:16 51°20.027 2°36.732 70.6 0.9 203 19.7
2007-06-07 08:07:16 51°20.02 2°36.744 74 1.3 82 21.3
2007-06-07 08:08:17 51°20.025 2°36.775 59.1 0.8 67 20.6
2007-06-07 08:09:16 51°20.023 2°36.787 61.3 0.4 176 20.9
2007-06-07 08:10:17 51°20.012 2°36.783 80.3 1 198 20.1
2007-06-07 08:11:16 51°20 2°36.768 105.5 1 226 21.9
2007-06-07 08:12:17 51°19.99 2°36.746 126 1 236 21.5
2007-06-07 08:13:16 51°19.982 2°36.725 137.8 0.9 229 -999
2007-06-07 08:14:17 51°19.971 2°36.773 83.8 3.4 75 21.7
2007-06-07 08:15:17 51°19.995 2°36.82 29 1.7 17 21.3
2007-06-07 08:16:17 51°20.017 2°36.822 22.2 0.9 357 21.6
2007-06-07 08:17:17 51°20.018 2°36.81 16.6 0.7 253 21.6
2007-06-07 08:18:16 51°20.01 2°36.791 3.1 1.1 221 20.4
2007-06-07 08:19:17 51°19.993 2°36.771 339.7 1.1 205 21.7
2007-06-07 08:20:16 51°19.977 2°36.762 314.8 1.1 199 21.6
2007-06-07 08:21:17 51°19.963 2°36.756 296.5 0.9 199 21
2007-06-07 08:22:16 51°19.951 2°36.745 283.2 1 205 20.4
2007-06-07 08:23:16 51°19.938 2°36.731 276.1 1 221 21.5
2007-06-07 08:24:16 51°19.925 2°36.715 275.5 1 219 21.4
2007-06-07 08:25:16 51°19.913 2°36.699 277.5 1 223 20.1
2007-06-07 08:26:17 51°19.901 2°36.681 280.1 0.9 226 21
2007-06-07 08:27:16 51°19.893 2°36.651 288 1.4 258 21.2
2007-06-07 08:28:17 51°19.908 2°36.583 325.7 3.2 314 21
2007-06-07 08:29:16 51°19.957 2°36.57 29 3.3 22 19.4
2007-06-07 08:30:17 51°20.005 2°36.615 39 2.4 34 21.9
2007-06-07 08:31:16 51°20.022 2°36.641 50.8 0.7 54 21.3
2007-06-07 08:32:17 51°20.032 2°36.67 60.9 3.1 61 21.8
2007-06-07 08:33:17 51°20.066 2°36.771 73.7 3.6 73 21.3
2007-06-07 08:34:17 51°20.065 2°36.826 87.9 1.4 106 21.4
2007-06-07 08:35:17 51°20.057 2°36.852 88.6 0.8 124 22.3
2007-06-07 08:36:16 51°20.048 2°36.861 89.3 0.8 167 22.1
2007-06-07 08:37:17 51°20.037 2°36.858 90.7 0.7 213 22.2
2007-06-07 08:38:16 51°20.025 2°36.846 95.3 1 214 21.6
2007-06-07 08:39:17 51°20.009 2°36.86 104.7 1.8 129 21.3
2007-06-07 08:40:17 51°19.977 2°36.904 132.8 3 145 21.3
2007-06-07 08:41:16 51°19.942 2°36.935 130.2 2 156 20.9
2007-06-07 08:42:17 51°19.918 2°36.951 122.3 1.3 168 21.6
2007-06-07 08:43:16 51°19.9 2°36.954 115.9 1 181 21
2007-06-07 08:44:17 51°19.885 2°36.949 107.9 0.9 202 20.1
2007-06-07 08:45:16 51°19.873 2°36.939 99.7 0.8 220 20.7
2007-06-07 08:46:17 51°19.859 2°36.94 103.7 1.7 132 21.5
2007-06-07 08:47:17 51°19.803 2°36.964 175.9 5.1 194 21.2
2007-06-07 08:48:17 51°19.75 2°36.876 238.9 3.7 244 20.9
2007-06-07 08:49:17 51°19.734 2°36.806 265.4 2.5 254 19.6
2007-06-07 08:50:17 51°19.723 2°36.748 272.3 2.2 248 20.7
2007-06-07 08:51:17 51°19.714 2°36.699 279.4 1.9 250 20.5
2007-06-07 08:52:17 51°19.704 2°36.654 284.9 1.7 252 20.6
2007-06-07 08:53:17 51°19.693 2°36.613 286.4 1.6 247 20.9
2007-06-07 08:54:16 51°19.681 2°36.576 288.8 1.6 240 19.4
2007-06-07 08:55:17 51°19.666 2°36.54 285.5 1.6 232 20.8
2007-06-07 08:56:16 51°19.652 2°36.506 286.4 1.5 239 20.4
2007-06-07 08:57:17 51°19.638 2°36.439 262.1 4.4 249 20.1
2007-06-07 08:58:17 51°19.57 2°36.388 164.9 4.6 166 20.9
2007-06-07 08:59:17 51°19.472 2°36.512 136.7 11.1 139 20.5
2007-06-07 09:00:17 51°19.307 2°36.695 141.9 12.5 146 21.1
2007-06-07 09:01:17 51°19.142 2°36.891 140 12.3 145 20.7
2007-06-07 09:02:17 51°18.98 2°37.086 139.1 12.2 146 17.2
2007-06-07 09:03:17 51°18.817 2°37.281 140.8 12.3 139 19
2007-06-07 09:04:17 51°18.654 2°37.476 141.6 12.2 141 21
2007-06-07 09:05:17 51°18.49 2°37.674 142.4 12.4 143 22.6
2007-06-07 09:06:17 51°18.328 2°37.876 140.8 12.3 144 24.2
2007-06-07 09:07:17 51°18.164 2°38.074 141.7 12.3 143 26.2
2007-06-07 09:08:17 51°18 2°38.265 140.8 12.2 146 25.8
2007-06-07 09:09:17 51°17.836 2°38.46 142.4 12.3 139 25.9
2007-06-07 09:10:16 51°17.676 2°38.646 142.1 12.2 146 25.8
2007-06-07 09:11:16 51°17.511 2°38.842 140 12 142 25.3
2007-06-07 09:12:17 51°17.345 2°39.047 141.2 12.3 141 19.1
2007-06-07 09:13:16 51°17.188 2°39.235 140.3 11.8 137 9.9
2007-06-07 09:14:16 51°17.028 2°39.422 142.8 12.2 143 11.7
2007-06-07 09:15:16 51°16.865 2°39.609 143.7 12.4 141 13.4
2007-06-07 09:16:16 51°16.7 2°39.801 142.3 12.2 142 17.4
2007-06-07 09:17:16 51°16.532 2°39.989 142.2 12.3 145 20.2
2007-06-07 09:18:16 51°16.362 2°40.181 140.2 12.5 146 20.5
2007-06-07 09:19:17 51°16.193 2°40.378 138.4 12.4 146 19.8
2007-06-07 09:20:16 51°16.035 2°40.577 137.9 12.3 138 18.3
2007-06-07 09:21:17 51°15.876 2°40.789 138.9 12.3 138 15.6
2007-06-07 09:22:16 51°15.722 2°40.994 136.5 12.3 145 11.9
2007-06-07 09:23:17 51°15.598 2°41.25 123.2 11.9 121 10.6
2007-06-07 09:24:16 51°15.489 2°41.508 119 11.8 118 9.7
2007-06-07 09:25:17 51°15.43 2°41.805 101 11.6 100 10
2007-06-07 09:26:16 51°15.421 2°42.1 91.4 11.3 92 9.8
2007-06-07 09:27:16 51°15.414 2°42.401 91.7 11.6 94 10.6
2007-06-07 09:28:17 51°15.402 2°42.707 92.5 11.2 96 9.6
2007-06-07 09:29:16 51°15.391 2°43.006 93.4 11.4 92 12.2
2007-06-07 09:30:17 51°15.374 2°43.313 92.8 11.6 99 13
2007-06-07 09:31:16 51°15.358 2°43.611 94.3 11.3 95 12.4
2007-06-07 09:32:16 51°15.341 2°43.913 94.1 11.5 94 12.5
2007-06-07 09:33:16 51°15.321 2°44.214 94.2 11.3 96 13.9
2007-06-07 09:34:16 51°15.302 2°44.512 94 11.3 95 16.3
2007-06-07 09:35:17 51°15.283 2°44.816 94.7 11.3 95 17.3
2007-06-07 09:36:16 51°15.263 2°45.106 94.4 11.2 95 16.7
2007-06-07 09:37:17 51°15.243 2°45.408 94.3 11.4 97 15.5
2007-06-07 09:38:16 51°15.223 2°45.702 94 11.3 96 14.7
2007-06-07 09:39:17 51°15.204 2°46.008 94.8 11.4 95 13.4
2007-06-07 09:40:16 51°15.185 2°46.306 93.6 11.5 96 12.1
2007-06-07 09:41:17 51°15.166 2°46.616 94.7 11.5 95 10.6
2007-06-07 09:42:17 51°15.147 2°46.918 93.5 11.5 99 9.3
2007-06-07 09:43:18 51°15.132 2°47.226 93.7 11.5 97 8.8
2007-06-07 09:44:17 51°15.113 2°47.524 95 11.6 100 9
2007-06-07 09:45:16 51°15.093 2°47.821 93.6 11.4 98 11
2007-06-07 09:46:17 51°15.073 2°48.127 93.9 11.3 97 12.3
2007-06-07 09:47:17 51°15.053 2°48.426 94.9 11.4 95 12.2
2007-06-07 09:48:17 51°15.033 2°48.725 94.7 11.5 94 12
2007-06-07 09:49:17 51°15.012 2°49.024 94 11.4 98 11.6
2007-06-07 09:50:17 51°14.991 2°49.323 94.1 11.3 96 11.9
2007-06-07 09:51:17 51°14.97 2°49.622 94.3 11.4 96 11.7
2007-06-07 09:52:17 51°14.95 2°49.923 95.2 11.3 96 11.7
2007-06-07 09:53:18 51°14.929 2°50.228 94 11.5 97 11.4
2007-06-07 09:54:17 51°14.908 2°50.524 94.4 11.4 98 11.1
2007-06-07 09:55:18 51°14.886 2°50.828 93.6 11.3 96 11
2007-06-07 09:56:16 51°14.866 2°51.118 94.6 11.5 96 10.6
2007-06-07 09:57:18 51°14.843 2°51.426 94.9 11.3 96 10
2007-06-07 09:58:17 51°14.821 2°51.715 94.4 10.7 98 9.8
2007-06-07 09:59:17 51°14.8 2°51.968 94.3 8.7 96 9.4
2007-06-07 10:00:17 51°14.782 2°52.159 92.9 6.2 100 9.1
2007-06-07 10:01:16 51°14.763 2°52.304 95 5.4 104 9
2007-06-07 10:02:17 51°14.744 2°52.441 93.3 5.2 101 8.7
2007-06-07 10:03:16 51°14.725 2°52.571 93.6 5.1 101 8.9
2007-06-07 10:04:18 51°14.705 2°52.707 94.3 5 103 8.6
2007-06-07 10:05:17 51°14.687 2°52.838 94.2 5.2 102 8.7
2007-06-07 10:06:17 51°14.668 2°52.971 93.4 5.2 101 8.5
2007-06-07 10:07:17 51°14.649 2°53.101 94.5 4.7 106 8.3
2007-06-07 10:08:17 51°14.631 2°53.209 93.6 4.1 107 8.2
2007-06-07 10:09:17 51°14.613 2°53.316 94.2 4.2 103 8
2007-06-07 10:10:17 51°14.595 2°53.432 94.5 4.8 104 7.6
2007-06-07 10:11:17 51°14.577 2°53.562 95.1 5.2 104 8
2007-06-07 10:12:17 51°14.557 2°53.729 94.6 7.7 99 9
2007-06-07 10:13:17 51°14.533 2°53.901 98.9 6.2 110 9.1
2007-06-07 10:14:17 51°14.511 2°54.045 92.8 5.3 99 9.2
2007-06-07 10:15:17 51°14.495 2°54.18 94.8 5.2 102 9.8
2007-06-07 10:16:17 51°14.482 2°54.282 84.9 2.6 100 10.5
2007-06-07 10:17:18 51°14.469 2°54.327 87.2 1.5 130 10.3
2007-06-07 10:18:18 51°14.453 2°54.345 86.3 1 158 10
2007-06-07 10:19:17 51°14.439 2°54.358 83.4 1.7 114 9.3
2007-06-07 10:20:18 51°14.44 2°54.542 86.9 10.6 87 9.9
2007-06-07 10:21:17 51°14.418 2°54.842 106.2 12.1 106 10.1
2007-06-07 10:22:17 51°14.333 2°55.14 121.5 12.5 124 10.1
2007-06-07 10:23:17 51°14.187 2°55.359 149.5 11.1 149 -999
2007-06-07 10:24:18 51°14.044 2°55.474 156.9 8.2 156 10
2007-06-07 10:25:18 51°13.921 2°55.564 157.7 8 154 10.1
2007-06-07 10:26:18 51°13.811 2°55.65 156.7 6.4 152 10.3
2007-06-07 10:27:18 51°13.736 2°55.749 140.9 5.8 138 10.7
2007-06-07 10:28:17 51°13.676 2°55.856 132.3 5.1 129 10
2007-06-07 10:29:18 51°13.632 2°55.951 125.6 3.9 122 10.1
2007-06-07 10:30:18 51°13.604 2°56.037 118.7 3.5 115 10.2
2007-06-07 10:31:18 51°13.589 2°56.106 110.3 1.7 107 7.5
2007-06-07 10:32:17 51°13.583 2°56.127 121.3 0.5 119 7.5